Terminal Aerodrome Forecast
Issued by NWS Milwaukee/Sullivan, WI

Home | Current Version | Previous Version | Text Only | Print | Product List | Glossary On
Versions: 1 2 3 4 5 6 7 8 9 10 11 12 13 14 15 16 17 18 19 20 21 22 23 24 25 26 27 28 29 30 31 32 33 34 35 36 37 38 39 40 41 42 43 44 45 46 47
000
FTUS43 KMKX 301130
TAFMKE
TAF
KMKE 301130Z 3012/0118 31006KT P6SM SCT006
      TEMPO 3012/3014 6SM BR BKN006
     FM301400 33008KT P6SM BKN015
     FM301600 34009KT P6SM BKN025
     FM301800 36010G17KT P6SM BKN035
     FM302000 02010KT P6SM SCT040
     FM010100 04007KT P6SM SCT250
     FM010900 34005KT P6SM SCT250
     FM011700 04007KT P6SM SCT250=

USA.gov is the U.S. government's official web portal to all federal, state and local government web resources and services.